createdAt,value
2022-12-24T00:04:08.164Z,99.99
2022-12-24T00:09:08.128Z,99.99
2022-12-24T00:14:08.113Z,99.99
2022-12-24T00:19:08.097Z,99.99
2022-12-24T00:24:08.034Z,99.99
2022-12-24T00:29:08.028Z,99.99
2022-12-24T00:34:07.987Z,99.99
2022-12-24T00:39:07.962Z,99.99
2022-12-24T00:44:07.928Z,99.99
2022-12-24T00:49:07.872Z,99.99
2022-12-24T00:54:07.843Z,99.99
2022-12-24T00:59:07.820Z,99.99
2022-12-24T01:04:07.795Z,99.99
2022-12-24T01:09:07.786Z,99.99
2022-12-24T01:14:07.759Z,99.99
2022-12-24T01:19:07.744Z,99.99
2022-12-24T01:24:07.699Z,99.99
2022-12-24T01:29:07.690Z,99.99
2022-12-24T01:34:07.678Z,99.99
2022-12-24T01:39:07.698Z,99.99
2022-12-24T01:44:07.665Z,99.99
2022-12-24T01:49:07.655Z,99.99
2022-12-24T01:54:07.651Z,99.99
2022-12-24T01:59:07.644Z,99.99
2022-12-24T02:04:07.574Z,99.99
2022-12-24T02:09:07.552Z,99.99
2022-12-24T02:14:07.529Z,99.99
2022-12-24T02:19:07.504Z,99.99
2022-12-24T02:24:07.494Z,99.99
2022-12-24T02:29:07.480Z,99.99
2022-12-24T02:34:07.440Z,99.99
2022-12-24T02:39:07.413Z,99.99
2022-12-24T02:44:07.401Z,99.99
2022-12-24T02:49:07.391Z,99.99
2022-12-24T02:54:07.352Z,99.99
2022-12-24T02:59:07.304Z,99.99
2022-12-24T03:04:07.250Z,99.99
2022-12-24T03:09:07.226Z,99.99
2022-12-24T03:14:07.183Z,99.99
2022-12-24T03:19:07.139Z,99.99
2022-12-24T03:24:07.119Z,99.99
2022-12-24T03:29:07.098Z,99.99
2022-12-24T03:34:07.098Z,99.99
2022-12-24T03:39:07.090Z,99.99
2022-12-24T03:44:07.067Z,99.99
2022-12-24T03:49:07.060Z,99.99
2022-12-24T03:54:07.039Z,99.99
2022-12-24T03:59:07.026Z,99.99
2022-12-24T04:04:07.000Z,99.99
2022-12-24T04:09:06.989Z,99.99
2022-12-24T04:14:06.934Z,99.99
2022-12-24T04:19:06.927Z,99.99
2022-12-24T04:24:06.919Z,99.99
2022-12-24T04:29:06.898Z,99.99
2022-12-24T04:34:06.849Z,99.99
2022-12-24T04:39:06.808Z,99.99
2022-12-24T04:44:06.772Z,99.99
2022-12-24T04:49:06.749Z,99.99
2022-12-24T04:54:06.681Z,99.99
2022-12-24T04:59:06.678Z,99.99
2022-12-24T05:04:06.624Z,99.99
2022-12-24T05:09:06.622Z,99.99
2022-12-24T05:14:06.577Z,99.99
2022-12-24T05:19:06.567Z,99.99
2022-12-24T05:24:06.510Z,99.99
2022-12-24T05:29:06.494Z,99.99
2022-12-24T05:34:06.440Z,99.99
2022-12-24T05:39:11.363Z,99.99
2022-12-24T05:44:06.429Z,99.99
2022-12-24T05:49:06.386Z,99.99
2022-12-24T05:54:06.348Z,99.99
2022-12-24T05:59:06.292Z,99.99
2022-12-24T06:04:06.306Z,99.99
2022-12-24T06:09:06.212Z,99.99
2022-12-24T06:14:06.186Z,99.99
2022-12-24T06:19:06.160Z,99.99
2022-12-24T06:24:06.150Z,99.99
2022-12-24T06:29:06.100Z,99.99
2022-12-24T06:34:06.069Z,99.99
2022-12-24T06:39:06.113Z,99.99
2022-12-24T06:44:06.014Z,99.99
2022-12-24T06:49:06.000Z,99.99
2022-12-24T06:54:05.937Z,99.99
2022-12-24T06:59:05.928Z,99.99
2022-12-24T07:04:05.903Z,99.99
2022-12-24T07:09:05.859Z,99.99
2022-12-24T07:14:05.817Z,99.99
2022-12-24T07:19:05.792Z,99.99
2022-12-24T07:24:05.736Z,99.99
2022-12-24T07:29:05.720Z,99.99
2022-12-24T07:34:05.712Z,99.99
2022-12-24T07:39:05.696Z,99.99
2022-12-24T07:44:05.651Z,99.99
2022-12-24T07:49:05.625Z,99.99
2022-12-24T07:54:05.612Z,99.99
2022-12-24T07:59:05.595Z,99.99
2022-12-24T08:04:06.622Z,99.99
2022-12-24T08:09:05.508Z,99.99
2022-12-24T08:14:05.478Z,99.99
2022-12-24T08:19:05.457Z,99.99
2022-12-24T08:24:05.393Z,99.99
2022-12-24T08:29:05.390Z,99.99
2022-12-24T08:34:05.381Z,99.99
2022-12-24T08:39:05.374Z,99.99
2022-12-24T08:44:05.345Z,99.99
2022-12-24T08:49:05.304Z,99.99
2022-12-24T08:54:05.272Z,99.99
2022-12-24T08:59:05.280Z,99.99
2022-12-24T09:04:05.254Z,99.99
2022-12-24T09:09:05.240Z,99.99
2022-12-24T09:14:05.225Z,99.99
2022-12-24T09:19:05.205Z,99.99
2022-12-24T09:24:05.183Z,99.99
2022-12-24T09:29:05.176Z,99.99
2022-12-24T09:34:05.138Z,99.99
2022-12-24T09:39:05.101Z,99.99
2022-12-24T09:44:05.079Z,99.99
2022-12-24T09:49:05.037Z,99.99
2022-12-24T09:54:05.022Z,98.59
2022-12-24T09:59:05.266Z,99.35
2022-12-24T10:04:04.975Z,99.05
2022-12-24T10:09:04.969Z,98.38
2022-12-24T10:14:04.912Z,98.18
2022-12-24T10:19:04.917Z,98.38
2022-12-24T10:24:04.839Z,97.97
2022-12-24T10:29:04.836Z,98.18
2022-12-24T10:34:04.781Z,97.97
2022-12-24T10:39:04.773Z,98.69
2022-12-24T10:44:04.730Z,97.50
2022-12-24T10:49:04.755Z,97.25
2022-12-24T10:54:05.061Z,96.28
2022-12-24T10:59:04.664Z,96.23
2022-12-24T11:04:04.609Z,96.03
2022-12-24T11:09:04.614Z,96.28
2022-12-24T11:14:04.558Z,96.69
2022-12-24T11:19:04.559Z,97.20
2022-12-24T11:24:04.510Z,95.36
2022-12-24T11:29:04.484Z,95.36
2022-12-24T11:34:04.514Z,94.95
2022-12-24T11:39:04.461Z,95.15
2022-12-24T11:44:04.459Z,94.99
2022-12-24T11:49:08.011Z,96.02
2022-12-24T11:54:04.416Z,95.61
2022-12-24T11:59:04.383Z,96.02
2022-12-24T12:04:04.391Z,94.95
2022-12-24T12:09:04.326Z,94.64
2022-12-24T12:14:04.307Z,94.54
2022-12-24T12:19:07.508Z,93.98
2022-12-24T12:24:04.262Z,93.21
2022-12-24T12:29:04.245Z,93.05
2022-12-24T12:34:04.223Z,92.85
2022-12-24T12:39:04.197Z,93.26
2022-12-24T12:44:04.194Z,94.18
2022-12-24T12:49:04.173Z,93.67
2022-12-24T12:54:04.159Z,93.12
2022-12-24T12:59:04.133Z,94.08
2022-12-24T13:04:04.126Z,93.67
2022-12-24T13:09:04.107Z,94.18
2022-12-24T13:14:04.090Z,94.64
2022-12-24T13:19:04.033Z,95.25
2022-12-24T13:24:04.042Z,95.97
2022-12-24T13:29:04.014Z,95.36
2022-12-24T13:34:04.008Z,96.69
2022-12-24T13:39:03.971Z,97.41
2022-12-24T13:44:03.965Z,97.00
2022-12-24T13:49:03.910Z,96.18
2022-12-24T13:54:03.894Z,97.00
2022-12-24T13:59:03.889Z,96.22
2022-12-24T14:04:03.847Z,95.77
2022-12-24T14:09:03.800Z,95.67
2022-12-24T14:14:03.804Z,95.46
2022-12-24T14:19:03.766Z,95.97
2022-12-24T14:24:03.742Z,96.33
2022-12-24T14:29:03.724Z,95.50
2022-12-24T14:34:03.676Z,95.92
2022-12-24T14:39:03.625Z,96.12
2022-12-24T14:44:03.585Z,96.22
2022-12-24T14:49:03.532Z,96.53
2022-12-24T14:54:03.538Z,96.94
2022-12-24T14:59:03.460Z,97.61
2022-12-24T15:04:03.459Z,97.81
2022-12-24T15:09:03.407Z,97.96
2022-12-24T15:14:03.370Z,97.96
2022-12-24T15:19:03.343Z,98.47
2022-12-24T15:24:03.315Z,99.09
2022-12-24T15:29:04.149Z,99.09
2022-12-24T15:34:03.260Z,99.19
2022-12-24T15:39:03.211Z,99.40
2022-12-24T15:44:03.175Z,99.81
2022-12-24T15:49:03.119Z,99.96
2022-12-24T15:54:03.115Z,99.99
2022-12-24T15:59:03.074Z,99.99
2022-12-24T16:04:03.168Z,99.99
2022-12-24T16:09:03.025Z,99.99
2022-12-24T16:14:02.987Z,99.99
2022-12-24T16:19:02.913Z,99.99
2022-12-24T16:24:02.936Z,99.99
2022-12-24T16:29:02.890Z,99.99
2022-12-24T16:34:02.900Z,99.99
2022-12-24T16:39:02.859Z,99.64
2022-12-24T16:44:02.821Z,99.08
2022-12-24T16:49:02.818Z,98.88
2022-12-24T16:54:02.761Z,99.49
2022-12-24T16:59:02.717Z,99.80
2022-12-24T17:04:02.822Z,99.70
2022-12-24T17:09:02.662Z,99.99
2022-12-24T17:14:08.153Z,99.99
2022-12-24T17:19:02.622Z,99.99
2022-12-24T17:24:02.577Z,99.99
2022-12-24T17:29:02.535Z,99.99
2022-12-24T17:34:02.505Z,99.99
2022-12-24T17:39:02.450Z,99.99
2022-12-24T17:44:02.424Z,99.99
2022-12-24T17:49:02.376Z,99.99
2022-12-24T17:54:02.399Z,99.99
2022-12-24T17:59:02.342Z,99.99
2022-12-24T18:04:02.413Z,99.99
2022-12-24T18:09:02.259Z,99.99
2022-12-24T18:14:02.215Z,99.99
2022-12-24T18:19:02.174Z,99.99
2022-12-24T18:24:02.125Z,99.99
2022-12-24T18:29:02.090Z,99.99
2022-12-24T18:34:02.054Z,99.99
2022-12-24T18:39:02.017Z,99.99
2022-12-24T18:44:01.958Z,99.99
2022-12-24T18:49:01.975Z,99.99
2022-12-24T18:54:01.892Z,99.99
2022-12-24T18:59:01.855Z,99.99
2022-12-24T19:04:01.825Z,99.99
2022-12-24T19:09:02.305Z,99.99
2022-12-24T19:14:01.773Z,99.99
2022-12-24T19:19:01.721Z,99.99
2022-12-24T19:24:01.732Z,99.99
2022-12-24T19:29:01.673Z,99.99
2022-12-24T19:34:01.651Z,99.99
2022-12-24T19:39:01.634Z,99.99
2022-12-24T19:44:01.620Z,99.99
2022-12-24T19:49:01.598Z,99.99
2022-12-24T19:54:01.578Z,99.99
2022-12-24T19:59:01.561Z,99.99
2022-12-24T20:04:01.507Z,99.99
2022-12-24T20:09:01.499Z,99.99
2022-12-24T20:14:01.473Z,99.99
2022-12-24T20:19:01.531Z,99.99
2022-12-24T20:24:01.428Z,99.99
2022-12-24T20:29:01.439Z,99.99
2022-12-24T20:34:01.403Z,99.99
2022-12-24T20:39:01.375Z,99.99
2022-12-24T20:44:01.417Z,99.99
2022-12-24T20:49:01.312Z,99.99
2022-12-24T20:54:01.307Z,99.99
2022-12-24T20:59:01.304Z,99.99
2022-12-24T21:04:01.220Z,99.99
2022-12-24T21:09:01.204Z,99.99
2022-12-24T21:14:01.187Z,99.99
2022-12-24T21:19:01.167Z,99.99
2022-12-24T21:24:01.121Z,99.99
2022-12-24T21:29:01.102Z,99.99
2022-12-24T21:34:01.129Z,99.99
2022-12-24T21:39:01.104Z,99.99
2022-12-24T21:44:01.071Z,99.99
2022-12-24T21:49:01.053Z,99.99
2022-12-24T21:54:01.006Z,99.99
2022-12-24T21:59:00.963Z,99.99
2022-12-24T22:04:00.918Z,99.99
2022-12-24T22:09:00.916Z,99.99
2022-12-24T22:14:01.100Z,99.99
2022-12-24T22:19:00.847Z,99.99
2022-12-24T22:24:00.850Z,99.99
2022-12-24T22:29:00.818Z,99.99
2022-12-24T22:34:00.793Z,99.99
2022-12-24T22:39:00.772Z,99.99
2022-12-24T22:44:00.761Z,99.99
2022-12-24T22:49:00.751Z,99.99
2022-12-24T22:54:00.737Z,99.99
2022-12-24T22:59:00.701Z,99.99
2022-12-24T23:04:00.966Z,99.99
2022-12-24T23:09:00.641Z,99.99
2022-12-24T23:14:00.643Z,99.99
2022-12-24T23:19:00.593Z,99.99
2022-12-24T23:24:00.583Z,99.99
2022-12-24T23:29:00.499Z,99.99
2022-12-24T23:34:00.497Z,99.99
2022-12-24T23:39:00.444Z,99.99
2022-12-24T23:44:00.419Z,99.99
2022-12-24T23:49:00.393Z,99.99
2022-12-24T23:54:00.381Z,99.99
2022-12-24T23:59:00.320Z,99.99
